Scappoose, Oregon
Current Conditions -  °F | °C
As of 6:13 PM on Sunday 23 Nov 2014 (Local Time) from KSPB Reporting Station
Haze Haze  
Wind Chill: 45°   Ceiling: 2500
Heat Index: 48°   Visibility: 6mi
Dew Point: 47°   Wind: 6mph
Humidity: 96%   Direction: 30°NNE
Pressure: 30.3"   Gusts: NA
Location:  45.75°N, 122.88°W
Report Text: KSPB 240213Z AUTO 03005KT 6SM BR FEW004 BKN025 OVC042 09/08 A3030 RMK AO2 T00890083
Loading
Personal Weather Stations






























Interactive Weather Map New forecast layout! Learn more

10-Day Weather Forecast

Advertisements
Track Severe Weather on mobile